createdAt,value
2023-06-18T00:02:26.478Z,8.50
2023-06-18T00:04:54.389Z,9.63
2023-06-18T00:07:21.481Z,8.37
2023-06-18T00:09:48.621Z,11.23
2023-06-18T00:12:15.991Z,9.23
2023-06-18T00:14:43.227Z,9.93
2023-06-18T00:17:10.667Z,8.23
2023-06-18T00:19:37.722Z,8.63
2023-06-18T00:22:06.895Z,8.07
2023-06-18T00:24:34.343Z,7.93
2023-06-18T00:27:01.716Z,8.30
2023-06-18T00:29:30.770Z,8.33
2023-06-18T00:31:57.880Z,8.10
2023-06-18T00:34:34.372Z,9.70
2023-06-18T00:37:01.902Z,13.17
2023-06-18T00:39:28.946Z,10.03
2023-06-18T00:41:56.474Z,9.83
2023-06-18T00:44:23.547Z,10.20
2023-06-18T00:46:52.943Z,9.37
2023-06-18T00:49:20.429Z,8.77
2023-06-18T00:51:49.079Z,10.03
2023-06-18T00:54:17.874Z,10.17
2023-06-18T00:56:52.362Z,9.33
2023-06-18T00:59:26.250Z,9.47
2023-06-18T01:01:55.872Z,10.57
2023-06-18T01:04:28.743Z,9.70
2023-06-18T01:06:58.725Z,17.40
2023-06-18T01:09:28.040Z,11.70
2023-06-18T01:11:55.766Z,10.10
2023-06-18T01:14:28.154Z,12.83
2023-06-18T01:16:58.186Z,9.33
2023-06-18T01:19:59.833Z,11.17
2023-06-18T01:23:03.480Z,12.50
2023-06-18T01:25:38.023Z,10.10
2023-06-18T01:28:09.734Z,13.53
2023-06-18T01:30:37.691Z,11.70
2023-06-18T01:33:05.298Z,12.33
2023-06-18T01:35:32.432Z,12.40
2023-06-18T01:38:34.157Z,10.83
2023-06-18T01:41:20.856Z,11.03
2023-06-18T01:43:59.471Z,12.20
2023-06-18T01:46:29.747Z,11.10
2023-06-18T01:49:00.808Z,11.87
2023-06-18T01:53:58.706Z,13.83
2023-06-18T01:56:29.441Z,10.73
2023-06-18T01:58:57.423Z,12.70
2023-06-18T02:01:27.026Z,13.67
2023-06-18T02:03:54.177Z,11.90
2023-06-18T02:06:21.640Z,11.13
2023-06-18T02:08:48.796Z,11.13
2023-06-18T02:11:16.030Z,10.93
2023-06-18T02:13:43.215Z,10.17
2023-06-18T02:16:10.606Z,12.10
2023-06-18T02:18:37.731Z,12.03
2023-06-18T02:21:04.861Z,15.23
2023-06-18T02:23:32.117Z,12.90
2023-06-18T02:25:59.894Z,12.63
2023-06-18T02:28:27.053Z,10.40
2023-06-18T02:30:56.198Z,10.00
2023-06-18T02:33:24.178Z,10.13
2023-06-18T02:35:51.297Z,10.30
2023-06-18T02:38:18.499Z,11.47
2023-06-18T02:40:45.783Z,11.70
2023-06-18T02:43:14.061Z,12.90
2023-06-18T02:45:41.206Z,12.73
2023-06-18T02:48:08.269Z,11.97
2023-06-18T02:50:35.427Z,13.13
2023-06-18T02:53:02.574Z,16.80
2023-06-18T02:55:32.926Z,12.63
2023-06-18T02:58:00.288Z,13.90
2023-06-18T03:00:27.987Z,12.80
2023-06-18T03:02:55.187Z,15.60
2023-06-18T03:05:22.321Z,13.70
2023-06-18T03:07:49.546Z,12.77
2023-06-18T03:10:16.828Z,13.40
2023-06-18T03:12:43.857Z,13.67
2023-06-18T03:15:11.341Z,15.63
2023-06-18T03:17:38.502Z,14.23
2023-06-18T03:20:08.239Z,13.13
2023-06-18T03:22:35.331Z,13.57
2023-06-18T03:25:02.501Z,13.23
2023-06-18T03:27:29.627Z,13.87
2023-06-18T03:29:57.365Z,13.80
2023-06-18T03:32:24.573Z,14.50
2023-06-18T03:34:52.129Z,15.37
2023-06-18T03:37:19.275Z,14.20
2023-06-18T03:39:46.401Z,20.60
2023-06-18T03:42:13.765Z,12.97
2023-06-18T03:44:40.904Z,16.73
2023-06-18T03:47:09.000Z,15.20
2023-06-18T03:49:36.503Z,14.60
2023-06-18T03:52:03.803Z,13.70
2023-06-18T03:54:32.820Z,14.83
2023-06-18T03:57:00.248Z,16.33
2023-06-18T03:59:27.432Z,15.77
2023-06-18T04:01:54.612Z,16.27
2023-06-18T04:04:21.975Z,14.83
2023-06-18T04:06:48.999Z,15.43
2023-06-18T04:09:18.220Z,14.27
2023-06-18T04:11:47.137Z,15.53
2023-06-18T04:14:14.345Z,15.23
2023-06-18T04:16:41.398Z,16.03
2023-06-18T04:19:08.560Z,15.90
2023-06-18T04:21:39.862Z,17.27
2023-06-18T04:24:07.035Z,15.50
2023-06-18T04:26:34.093Z,15.27
2023-06-18T04:29:01.130Z,17.73
2023-06-18T04:31:28.331Z,15.20
2023-06-18T04:33:55.593Z,14.83
2023-06-18T04:36:22.707Z,14.40
2023-06-18T04:38:49.798Z,15.30
2023-06-18T04:41:17.105Z,15.17
2023-06-18T04:43:44.777Z,15.33
2023-06-18T04:46:11.960Z,15.17
2023-06-18T04:48:39.923Z,16.97
2023-06-18T04:51:07.534Z,16.67
2023-06-18T04:53:34.556Z,14.15
2023-06-18T04:56:01.812Z,14.90
2023-06-18T04:58:29.159Z,17.27
2023-06-18T05:00:56.186Z,16.65
2023-06-18T05:03:24.426Z,18.05
2023-06-18T05:05:52.197Z,16.98
2023-06-18T05:08:19.477Z,16.23
2023-06-18T05:10:46.702Z,16.08
2023-06-18T05:13:14.089Z,21.27
2023-06-18T05:15:41.133Z,16.20
2023-06-18T05:18:08.278Z,15.90
2023-06-18T05:20:35.460Z,17.17
2023-06-18T05:23:02.446Z,16.90
2023-06-18T05:25:29.526Z,16.75
2023-06-18T05:27:56.861Z,16.65
2023-06-18T05:30:24.985Z,16.95
2023-06-18T05:32:52.320Z,15.65
2023-06-18T05:35:19.412Z,17.00
2023-06-18T05:37:46.559Z,15.60
2023-06-18T05:40:13.637Z,15.85
2023-06-18T05:42:40.784Z,15.75
2023-06-18T05:45:09.156Z,14.88
2023-06-18T05:47:36.388Z,14.93
2023-06-18T05:50:03.698Z,15.30
2023-06-18T05:52:30.890Z,15.43
2023-06-18T05:54:57.948Z,15.73
2023-06-18T05:57:25.093Z,18.65
2023-06-18T05:59:52.315Z,16.88
2023-06-18T06:02:19.357Z,14.13
2023-06-18T06:04:47.125Z,15.02
2023-06-18T06:07:14.444Z,15.85
2023-06-18T06:09:41.570Z,14.32
2023-06-18T06:21:57.681Z,15.60
2023-06-18T06:24:24.846Z,14.13
2023-06-18T06:26:51.978Z,16.15
2023-06-18T06:29:19.135Z,15.73
2023-06-18T06:31:46.207Z,14.85
2023-06-18T06:34:13.334Z,15.02
2023-06-18T06:36:40.435Z,15.95
2023-06-18T06:39:07.520Z,14.98
2023-06-18T06:41:35.435Z,14.07
2023-06-18T06:44:02.523Z,14.85
2023-06-18T06:46:29.555Z,15.30
2023-06-18T06:48:56.637Z,15.30
2023-06-18T06:51:23.689Z,14.23
2023-06-18T06:53:50.758Z,15.43
2023-06-18T06:56:17.941Z,15.30
2023-06-18T06:58:44.968Z,14.25
2023-06-18T07:01:12.142Z,13.63
2023-06-18T07:03:39.393Z,15.32
2023-06-18T07:06:07.595Z,14.60
2023-06-18T07:08:34.808Z,13.43
2023-06-18T07:11:01.866Z,16.25
2023-06-18T07:13:28.892Z,15.00
2023-06-18T07:15:56.399Z,14.43
2023-06-18T07:18:23.527Z,13.82
2023-06-18T07:20:50.636Z,14.52
2023-06-18T07:23:17.798Z,13.40
2023-06-18T07:25:44.860Z,14.23
2023-06-18T07:28:12.018Z,13.40
2023-06-18T07:30:39.023Z,13.77
2023-06-18T07:33:06.255Z,12.95
2023-06-18T07:35:33.337Z,13.10
2023-06-18T07:38:00.632Z,12.73
2023-06-18T07:40:29.572Z,13.77
2023-06-18T07:42:56.652Z,14.05
2023-06-18T07:45:23.697Z,12.05
2023-06-18T07:47:51.027Z,11.90
2023-06-18T07:50:18.509Z,11.60
2023-06-18T07:52:45.633Z,10.32
2023-06-18T07:55:12.689Z,11.15
2023-06-18T07:57:40.264Z,10.68
2023-06-18T08:00:08.944Z,13.25
2023-06-18T08:02:36.404Z,12.30
2023-06-18T08:05:04.029Z,10.77
2023-06-18T08:07:31.182Z,10.45
2023-06-18T08:09:58.305Z,10.30
2023-06-18T08:12:26.274Z,10.93
2023-06-18T08:14:53.416Z,10.68
2023-06-18T08:17:20.503Z,9.73
2023-06-18T08:19:49.054Z,8.70
2023-06-18T08:22:17.292Z,9.77
2023-06-18T08:24:44.932Z,9.30
2023-06-18T08:27:16.406Z,9.85
2023-06-18T08:29:43.552Z,9.60
2023-06-18T08:32:10.668Z,9.40
2023-06-18T08:34:44.167Z,9.00
2023-06-18T08:37:11.793Z,9.80
2023-06-18T08:39:39.357Z,9.20
2023-06-18T08:42:07.702Z,9.05
2023-06-18T08:44:35.577Z,8.50
2023-06-18T08:47:05.287Z,8.70
2023-06-18T08:49:34.213Z,8.15
2023-06-18T08:52:07.097Z,8.40
2023-06-18T08:54:36.706Z,8.40
2023-06-18T08:57:37.182Z,8.18
2023-06-18T09:00:05.815Z,8.30
2023-06-18T09:02:33.158Z,8.02
2023-06-18T09:05:05.832Z,8.60
2023-06-18T09:07:33.049Z,7.65
2023-06-18T09:10:01.102Z,7.50
2023-06-18T09:12:28.327Z,7.32
2023-06-18T09:14:55.420Z,7.22
2023-06-18T09:17:23.824Z,9.30
2023-06-18T09:19:52.001Z,10.88
2023-06-18T09:22:22.728Z,8.57
2023-06-18T09:24:59.033Z,8.73
2023-06-18T09:27:33.917Z,7.75
2023-06-18T09:30:01.854Z,7.38
2023-06-18T09:32:29.019Z,8.45
2023-06-18T09:34:56.183Z,8.43
2023-06-18T09:37:23.408Z,7.38
2023-06-18T09:39:54.773Z,10.02
2023-06-18T09:42:31.007Z,8.02
2023-06-18T09:44:59.269Z,8.45
2023-06-18T09:47:26.818Z,9.32
2023-06-18T09:49:54.467Z,8.65
2023-06-18T09:52:21.568Z,8.20
2023-06-18T09:54:48.722Z,8.30
2023-06-18T09:57:17.698Z,8.15
2023-06-18T09:59:44.833Z,8.15
2023-06-18T10:02:15.298Z,8.35
2023-06-18T10:04:42.771Z,8.93
2023-06-18T10:07:17.610Z,9.35
2023-06-18T10:09:48.484Z,7.88
2023-06-18T10:12:16.932Z,7.70
2023-06-18T10:14:44.780Z,7.72
2023-06-18T10:17:21.503Z,7.78
2023-06-18T10:19:55.945Z,7.20
2023-06-18T10:22:24.401Z,7.88
2023-06-18T10:25:05.791Z,8.00
2023-06-18T10:27:34.476Z,8.05
2023-06-18T10:30:02.335Z,7.25
2023-06-18T10:32:32.786Z,7.15
2023-06-18T10:35:04.029Z,7.85
2023-06-18T10:37:33.105Z,7.00
2023-06-18T10:40:00.958Z,9.13
2023-06-18T10:42:33.424Z,7.40
2023-06-18T10:45:14.241Z,7.93
2023-06-18T10:47:42.891Z,7.55
2023-06-18T10:50:13.984Z,8.57
2023-06-18T10:52:51.095Z,7.20
2023-06-18T10:55:28.001Z,7.80
2023-06-18T10:58:06.651Z,7.18
2023-06-18T11:00:39.083Z,6.50
2023-06-18T11:03:14.161Z,6.13
2023-06-18T11:05:45.005Z,6.32
2023-06-18T11:08:14.764Z,6.78
2023-06-18T11:10:50.244Z,7.05
2023-06-18T11:13:18.784Z,7.35
2023-06-18T11:16:11.584Z,6.82
2023-06-18T11:18:42.026Z,7.13
2023-06-18T11:21:19.086Z,8.60
2023-06-18T11:23:47.533Z,7.15
2023-06-18T11:26:19.738Z,7.10
2023-06-18T11:28:48.255Z,7.50
2023-06-18T11:31:15.686Z,6.90
2023-06-18T11:33:50.174Z,7.28
2023-06-18T11:36:20.748Z,7.00
2023-06-18T11:38:49.271Z,7.40
2023-06-18T11:41:22.973Z,6.60
2023-06-18T11:43:53.396Z,6.95
2023-06-18T11:46:37.691Z,7.38
2023-06-18T11:49:13.782Z,7.78
2023-06-18T11:51:41.164Z,7.65
2023-06-18T11:54:08.371Z,7.30
2023-06-18T11:56:35.400Z,6.97
2023-06-18T11:59:04.170Z,7.88
2023-06-18T12:01:33.410Z,6.50
2023-06-18T12:04:09.661Z,7.03
2023-06-18T12:06:38.873Z,6.95
2023-06-18T12:09:11.823Z,6.90
2023-06-18T12:12:00.483Z,6.30
2023-06-18T12:14:58.238Z,6.70
2023-06-18T12:17:47.757Z,6.10
2023-06-18T12:20:16.048Z,6.75
2023-06-18T12:22:43.377Z,7.35
2023-06-18T12:25:12.726Z,7.10
2023-06-18T12:27:42.733Z,6.32
2023-06-18T12:30:12.629Z,7.68
2023-06-18T12:32:40.471Z,7.45
2023-06-18T12:35:16.672Z,7.28
2023-06-18T12:37:49.072Z,7.15
2023-06-18T12:40:26.382Z,7.03
2023-06-18T12:42:53.913Z,7.32
2023-06-18T12:45:29.381Z,6.60
2023-06-18T12:47:59.575Z,6.57
2023-06-18T12:50:29.309Z,7.28
2023-06-18T12:52:56.381Z,6.78
2023-06-18T12:55:24.203Z,7.28
2023-06-18T12:57:52.029Z,7.45
2023-06-18T13:00:23.453Z,7.03
2023-06-18T13:02:52.901Z,6.88
2023-06-18T13:05:21.214Z,8.18
2023-06-18T13:07:55.234Z,6.50
2023-06-18T13:10:22.626Z,6.68
2023-06-18T13:12:49.901Z,6.90
2023-06-18T13:15:17.341Z,7.55
2023-06-18T13:17:44.685Z,7.70
2023-06-18T13:20:13.068Z,7.32
2023-06-18T13:22:40.762Z,7.80
2023-06-18T13:25:10.294Z,7.63
2023-06-18T13:27:37.574Z,7.00
2023-06-18T13:30:05.333Z,7.32
2023-06-18T13:32:32.398Z,7.40
2023-06-18T13:34:59.450Z,7.75
2023-06-18T13:37:28.288Z,8.65
2023-06-18T13:39:55.398Z,7.97
2023-06-18T13:42:23.785Z,7.20
2023-06-18T13:44:50.833Z,8.30
2023-06-18T13:47:17.874Z,7.55
2023-06-18T13:49:44.979Z,8.50
2023-06-18T13:52:13.883Z,7.60
2023-06-18T13:54:41.056Z,7.97
2023-06-18T13:57:08.252Z,7.43
2023-06-18T13:59:35.432Z,7.32
2023-06-18T14:02:04.188Z,6.72
2023-06-18T14:04:36.550Z,7.30
2023-06-18T14:07:04.607Z,7.68
2023-06-18T14:09:32.088Z,7.80
2023-06-18T14:11:59.384Z,7.25
2023-06-18T14:14:26.517Z,7.85
2023-06-18T14:16:53.880Z,7.50
2023-06-18T14:19:22.180Z,7.10
2023-06-18T14:21:49.290Z,7.35
2023-06-18T14:24:16.501Z,7.53
2023-06-18T14:26:44.056Z,7.07
2023-06-18T14:29:12.150Z,6.88
2023-06-18T14:31:40.070Z,7.28
2023-06-18T14:34:09.825Z,7.40
2023-06-18T14:36:39.680Z,7.57
2023-06-18T14:39:08.936Z,7.00
2023-06-18T14:41:36.698Z,7.13
2023-06-18T14:44:04.037Z,9.48
2023-06-18T14:46:31.116Z,6.55
2023-06-18T14:48:58.348Z,7.88
2023-06-18T14:51:25.589Z,7.28
2023-06-18T14:53:54.623Z,8.10
2023-06-18T14:56:22.200Z,6.55
2023-06-18T14:58:49.315Z,7.30
2023-06-18T15:01:16.527Z,7.30
2023-06-18T15:03:44.355Z,7.53
2023-06-18T15:06:11.832Z,7.05
2023-06-18T15:08:38.880Z,6.80
2023-06-18T15:11:06.075Z,7.25
2023-06-18T15:13:33.232Z,6.57
2023-06-18T15:16:01.241Z,6.85
2023-06-18T15:18:28.466Z,7.15
2023-06-18T15:20:55.808Z,7.00
2023-06-18T15:23:22.786Z,7.60
2023-06-18T15:25:50.056Z,7.45
2023-06-18T15:28:17.390Z,8.05
2023-06-18T15:30:44.705Z,8.07
2023-06-18T15:33:11.891Z,7.55
2023-06-18T15:35:39.015Z,7.32
2023-06-18T15:38:06.191Z,8.45
2023-06-18T15:40:33.431Z,7.70
2023-06-18T15:43:00.794Z,7.97
2023-06-18T15:45:27.984Z,8.40
2023-06-18T15:47:54.982Z,8.20
2023-06-18T15:50:22.620Z,7.85
2023-06-18T15:52:51.256Z,7.72
2023-06-18T15:55:19.996Z,7.55
2023-06-18T15:57:47.393Z,7.45
2023-06-18T16:00:15.024Z,8.10
2023-06-18T16:02:42.221Z,8.55
2023-06-18T16:05:11.163Z,8.27
2023-06-18T16:07:39.850Z,7.72
2023-06-18T16:10:07.881Z,8.63
2023-06-18T16:12:34.900Z,8.75
2023-06-18T16:15:02.431Z,7.82
2023-06-18T16:17:30.078Z,8.07
2023-06-18T16:19:57.148Z,8.10
2023-06-18T16:22:24.307Z,7.97
2023-06-18T16:24:51.448Z,7.97
2023-06-18T16:27:19.030Z,7.82
2023-06-18T16:29:46.095Z,8.18
2023-06-18T16:32:13.223Z,9.02
2023-06-18T16:34:41.537Z,8.32
2023-06-18T16:37:08.744Z,7.68
2023-06-18T16:39:38.753Z,7.95
2023-06-18T16:42:07.269Z,8.80
2023-06-18T16:44:36.759Z,9.43
2023-06-18T16:47:04.060Z,11.07
2023-06-18T16:49:31.098Z,7.88
2023-06-18T16:51:58.185Z,8.10
2023-06-18T16:54:25.302Z,8.23
2023-06-18T16:56:52.317Z,7.82
2023-06-18T16:59:19.410Z,7.68
2023-06-18T17:01:46.574Z,7.53
2023-06-18T17:04:13.643Z,8.48
2023-06-18T17:06:40.730Z,9.05
2023-06-18T17:09:07.922Z,8.40
2023-06-18T17:11:35.111Z,7.78
2023-06-18T17:14:02.127Z,7.40
2023-06-18T17:16:29.289Z,8.07
2023-06-18T17:18:56.682Z,8.10
2023-06-18T17:21:23.708Z,7.80
2023-06-18T17:23:51.198Z,7.25
2023-06-18T17:26:18.507Z,7.93
2023-06-18T17:28:45.878Z,7.85
2023-06-18T17:31:13.588Z,8.18
2023-06-18T17:33:41.505Z,8.48
2023-06-18T17:36:08.749Z,8.50
2023-06-18T17:38:35.809Z,9.10
2023-06-18T17:41:03.577Z,7.20
2023-06-18T17:43:30.767Z,7.57
2023-06-18T17:46:18.219Z,7.30
2023-06-18T17:48:49.097Z,7.20
2023-06-18T17:51:17.694Z,7.72
2023-06-18T17:53:47.738Z,8.15
2023-06-18T17:56:14.891Z,9.85
2023-06-18T17:58:42.176Z,8.10
2023-06-18T18:01:09.369Z,8.10
2023-06-18T18:03:36.620Z,7.32
2023-06-18T18:06:04.916Z,7.95
2023-06-18T18:08:32.203Z,8.00
2023-06-18T18:10:59.532Z,8.05
2023-06-18T18:13:27.804Z,9.85
2023-06-18T18:16:02.424Z,8.70
2023-06-18T18:18:29.762Z,8.77
2023-06-18T18:20:56.856Z,8.95
2023-06-18T18:23:23.978Z,8.77
2023-06-18T18:25:51.655Z,11.70
2023-06-18T18:28:19.666Z,10.57
2023-06-18T18:30:46.770Z,11.82
2023-06-18T18:33:14.020Z,8.90
2023-06-18T18:35:41.086Z,9.00
2023-06-18T18:38:08.178Z,8.43
2023-06-18T18:40:35.412Z,9.07
2023-06-18T18:45:29.498Z,8.68
2023-06-18T18:47:56.668Z,8.60
2023-06-18T18:57:45.298Z,9.50
2023-06-18T19:00:14.172Z,9.38
2023-06-18T19:02:41.490Z,9.68
2023-06-18T19:05:09.533Z,9.30
2023-06-18T19:07:36.579Z,9.23
2023-06-18T19:10:07.349Z,11.32
2023-06-18T19:12:34.583Z,9.52
2023-06-18T19:15:02.588Z,9.25
2023-06-18T19:17:30.032Z,10.25
2023-06-18T20:53:19.389Z,6.90
2023-06-18T20:55:46.443Z,8.68
2023-06-18T20:58:13.555Z,8.07
2023-06-18T21:00:40.648Z,7.82
2023-06-18T21:03:07.906Z,7.90
2023-06-18T21:05:35.038Z,8.10
2023-06-18T21:08:02.317Z,7.65
2023-06-18T21:10:30.382Z,7.35
2023-06-18T21:12:57.428Z,8.43
2023-06-18T21:15:24.543Z,7.32
2023-06-18T21:17:51.613Z,7.50
2023-06-18T21:20:21.952Z,8.60
2023-06-18T21:22:49.690Z,7.63
2023-06-18T21:25:17.193Z,8.45
2023-06-18T21:27:44.353Z,8.18
2023-06-18T21:30:12.737Z,8.02
2023-06-18T21:32:39.798Z,8.25
2023-06-18T21:35:07.417Z,7.10
2023-06-18T21:37:34.735Z,7.30
2023-06-18T21:40:01.919Z,7.78
2023-06-18T21:42:28.994Z,9.52
2023-06-18T21:44:56.079Z,7.47
2023-06-18T21:47:23.220Z,7.47
2023-06-18T21:49:50.747Z,7.55
2023-06-18T21:52:17.860Z,7.25
2023-06-18T21:54:46.278Z,7.80
2023-06-18T21:57:13.329Z,7.65
2023-06-18T21:59:40.637Z,7.82
2023-06-18T22:02:09.042Z,8.18
2023-06-18T22:04:37.829Z,8.32
2023-06-18T22:07:05.292Z,6.95
2023-06-18T22:09:33.458Z,7.85
2023-06-18T22:12:00.818Z,7.53
2023-06-18T22:14:28.060Z,7.32
2023-06-18T22:16:55.244Z,7.45
2023-06-18T22:19:22.488Z,7.50
2023-06-18T22:21:49.623Z,8.02
2023-06-18T22:24:16.860Z,7.90
2023-06-18T22:26:44.672Z,8.80
2023-06-18T22:29:11.850Z,8.82
2023-06-18T22:31:38.922Z,7.78
2023-06-18T22:34:05.957Z,7.72
2023-06-18T22:36:33.231Z,7.63
2023-06-18T22:39:00.392Z,7.82
2023-06-18T22:41:27.502Z,8.38
2023-06-18T22:43:55.956Z,7.65
2023-06-18T22:46:23.683Z,9.05
2023-06-18T22:48:50.802Z,7.93
2023-06-18T22:51:18.238Z,8.27
2023-06-18T22:53:45.382Z,8.02
2023-06-18T22:56:12.636Z,8.95
2023-06-18T22:58:39.859Z,7.60
2023-06-18T23:01:10.754Z,7.82
2023-06-18T23:03:38.076Z,8.00
2023-06-18T23:06:05.273Z,7.50
2023-06-18T23:08:32.448Z,7.80
2023-06-18T23:10:59.741Z,7.80
2023-06-18T23:13:26.797Z,7.43
2023-06-18T23:15:55.551Z,8.35
2023-06-18T23:18:22.692Z,8.45
2023-06-18T23:20:50.073Z,7.65
2023-06-18T23:23:17.252Z,7.60
2023-06-18T23:25:44.579Z,8.77
2023-06-18T23:28:11.716Z,8.10
2023-06-18T23:30:38.828Z,7.63
2023-06-18T23:33:06.060Z,8.00
2023-06-18T23:35:33.997Z,8.65
2023-06-18T23:38:01.189Z,7.90
2023-06-18T23:40:28.270Z,8.13
2023-06-18T23:42:56.265Z,8.68
2023-06-18T23:45:23.422Z,7.93
2023-06-18T23:47:50.528Z,8.20
2023-06-18T23:50:17.670Z,7.65
2023-06-18T23:52:44.832Z,9.52
2023-06-18T23:55:11.958Z,9.10
2023-06-18T23:57:39.493Z,8.27
